Time;durP1;ratioP1;P1;durP2;ratioP2;P2;SDS_P1;SDS_P2;PMS_P1;PMS_P2;Temp;Humidity;BMP_temperature;BMP_pressure;BME280_temperature;BME280_humidity;BME280_pressure;Samples;Min_cycle;Max_cycle;Signal;HPM_P1;HPM_P2
2022/10/18 00:02:10;;;;;;;8.43;7.60;;;;;;;15.59;79.63;100370.53;6011261;23;20212;-87
2022/10/18 00:04:37;;;;;;;7.90;7.10;;;;;;;15.64;79.50;100381.47;6034691;23;20206;-87
2022/10/18 00:07:03;;;;;;;7.30;6.60;;;;;;;15.61;79.45;100371.16;6034694;23;20209;-88
2022/10/18 00:09:30;;;;;;;7.93;7.13;;;;;;;15.52;79.27;100372.56;6035990;23;20261;-86
2022/10/18 00:11:57;;;;;;;11.17;7.50;;;;;;;15.43;80.12;100374.75;6036237;23;20213;-86
2022/10/18 00:14:23;;;;;;;7.93;7.13;;;;;;;15.36;80.52;100370.50;6033988;23;20206;-87
2022/10/18 00:16:50;;;;;;;7.67;6.97;;;;;;;15.39;80.11;100372.75;6035325;23;20226;-88
2022/10/18 00:19:16;;;;;;;8.70;6.80;;;;;;;15.24;80.99;100370.50;6034786;23;20675;-88
2022/10/18 00:21:43;;;;;;;9.83;6.97;;;;;;;15.25;81.45;100369.44;6036285;23;20210;-87
2022/10/18 00:24:14;;;;;;;10.50;7.43;;;;;;;15.19;81.66;100372.22;6034297;23;20292;-88
2022/10/18 00:26:41;;;;;;;7.83;6.87;;;;;;;15.18;81.39;100362.47;6035895;23;20686;-87
2022/10/18 00:29:12;;;;;;;7.50;6.80;;;;;;;15.10;81.93;100374.44;6010903;23;20224;-86
2022/10/18 00:31:39;;;;;;;8.00;7.20;;;;;;;15.08;82.46;100368.44;6035731;23;20213;-84
2022/10/18 00:34:11;;;;;;;7.47;6.87;;;;;;;15.05;82.32;100362.69;6035435;23;20217;-86
2022/10/18 00:36:37;;;;;;;7.87;7.17;;;;;;;15.13;81.77;100367.75;6036083;23;20305;-85
2022/10/18 00:39:05;;;;;;;7.97;7.03;;;;;;;15.08;81.67;100375.72;6037241;23;20213;-86
2022/10/18 00:41:34;;;;;;;9.13;7.50;;;;;;;15.01;82.06;100369.59;6035827;23;20682;-85
2022/10/18 00:44:03;;;;;;;7.97;7.20;;;;;;;15.01;82.28;100365.03;6035633;23;20214;-87
2022/10/18 00:46:36;;;;;;;8.00;7.20;;;;;;;14.92;82.90;100352.94;6035636;23;20209;-92
2022/10/18 00:49:12;;;;;;;8.03;7.33;;;;;;;14.85;84.00;100357.59;6012225;23;20217;-84
2022/10/18 00:52:02;;;;;;;8.37;7.50;;;;;;;14.79;84.52;100364.72;6037317;23;20213;-85
2022/10/18 00:54:31;;;;;;;8.30;6.80;;;;;;;14.73;84.90;100364.81;6036870;23;20292;-84
2022/10/18 00:56:58;;;;;;;9.37;7.40;;;;;;;14.61;86.86;100362.06;6035986;23;20218;-88
2022/10/18 00:59:25;;;;;;;7.73;6.93;;;;;;;14.50;87.50;100354.75;6037965;23;20209;-88
2022/10/18 01:01:52;;;;;;;8.00;7.00;;;;;;;14.46;87.85;100348.19;6036951;23;20217;-89
2022/10/18 01:04:19;;;;;;;9.53;8.63;;;;;;;14.37;91.62;100360.34;6036136;23;20272;-88
2022/10/18 01:07:13;;;;;;;12.13;9.80;;;;;;;14.21;94.98;100344.72;6036685;23;20209;-90
2022/10/18 01:09:51;;;;;;;11.17;10.00;;;;;;;14.09;98.04;100348.16;6036638;23;20230;-88
2022/10/18 01:12:24;;;;;;;9.00;8.10;;;;;;;14.14;98.98;100344.00;6012753;23;20213;-90
2022/10/18 01:15:24;;;;;;;9.17;7.63;;;;;;;13.92;98.80;100344.44;6038268;23;20251;-90
2022/10/18 01:18:17;;;;;;;9.77;8.73;;;;;;;13.69;100.00;100341.56;5990385;23;20215;-90
2022/10/18 01:21:06;;;;;;;14.37;10.13;;;;;;;13.42;100.00;100337.47;6036553;23;20283;-90
2022/10/18 01:24:08;;;;;;;12.20;11.10;;;;;;;13.33;100.00;100333.44;6036993;23;20210;-91
2022/10/18 01:27:01;;;;;;;12.70;11.50;;;;;;;13.23;100.00;100331.22;6013252;23;20229;-90
2022/10/18 01:29:55;;;;;;;14.50;13.00;;;;;;;13.00;100.00;100329.09;6013826;23;20228;-89
2022/10/18 01:32:26;;;;;;;12.83;11.63;;;;;;;12.96;100.00;100327.06;6036688;23;20203;-89
2022/10/18 01:34:58;;;;;;;12.37;11.27;;;;;;;12.78;100.00;100335.88;6013196;23;20288;-90
2022/10/18 01:37:25;;;;;;;10.53;9.43;;;;;;;12.60;100.00;100331.22;6012661;23;20290;-89
2022/10/18 01:39:54;;;;;;;11.70;10.50;;;;;;;12.52;100.00;100336.84;6036057;23;20243;-91
2022/10/18 01:42:20;;;;;;;12.00;10.90;;;;;;;12.39;100.00;100338.78;6037078;23;20214;-88
2022/10/18 01:44:49;;;;;;;12.83;11.60;;;;;;;12.24;100.00;100325.63;6057253;23;20738;-89
2022/10/18 01:47:16;;;;;;;14.23;12.00;;;;;;;12.12;100.00;100335.38;6064207;23;20210;-86
2022/10/18 01:49:43;;;;;;;14.07;11.97;;;;;;;12.06;100.00;100323.63;6063605;23;20229;-84
2022/10/18 01:52:14;;;;;;;13.73;12.43;;;;;;;11.99;100.00;100320.13;6064853;23;20214;-86
2022/10/18 01:54:47;;;;;;;20.07;13.20;;;;;;;11.86;100.00;100321.00;6065645;23;20292;-84
2022/10/18 01:57:20;;;;;;;14.20;12.80;;;;;;;11.79;100.00;100319.38;6064108;23;20217;-88
2022/10/18 02:00:08;;;;;;;16.00;12.90;;;;;;;11.73;100.00;100325.59;6065013;23;20214;-86
2022/10/18 02:02:47;;;;;;;15.67;13.67;;;;;;;11.54;100.00;100313.81;6064058;23;20297;-85
2022/10/18 02:05:47;;;;;;;14.50;13.07;;;;;;;11.54;100.00;100321.03;6040395;23;20233;-87
2022/10/18 02:08:25;;;;;;;13.90;12.57;;;;;;;11.49;100.00;100322.50;6034291;23;20220;-84
2022/10/18 02:11:02;;;;;;;15.40;12.90;;;;;;;11.40;100.00;100318.38;6065132;23;20295;-87
2022/10/18 02:13:34;;;;;;;14.00;12.60;;;;;;;11.29;100.00;100324.38;6040215;23;20216;-86
2022/10/18 02:16:05;;;;;;;13.77;12.37;;;;;;;11.19;100.00;100333.88;6063798;23;20232;-82
2022/10/18 02:18:40;;;;;;;13.27;12.00;;;;;;;11.10;100.00;100330.59;6040133;23;20212;-85
2022/10/18 02:21:09;;;;;;;13.93;12.63;;;;;;;11.10;100.00;100332.44;6065160;23;20268;-84
2022/10/18 02:23:37;;;;;;;15.17;13.57;;;;;;;11.07;100.00;100332.84;6064178;23;20212;-85
2022/10/18 02:26:04;;;;;;;14.57;13.10;;;;;;;11.00;100.00;100331.00;6039511;23;20283;-85
2022/10/18 02:28:31;;;;;;;14.13;12.73;;;;;;;10.95;100.00;100325.41;6063529;23;20204;-83
2022/10/18 02:31:07;;;;;;;14.80;13.40;;;;;;;10.88;100.00;100327.25;6064751;23;20223;-86
2022/10/18 02:33:51;;;;;;;15.03;13.47;;;;;;;10.88;100.00;100334.47;6063952;23;20223;-86
2022/10/18 02:36:39;;;;;;;16.37;14.70;;;;;;;10.73;100.00;100339.22;6063320;23;20620;-86
2022/10/18 02:39:13;;;;;;;15.43;13.83;;;;;;;10.66;100.00;100341.03;6065146;23;20217;-86
2022/10/18 02:41:40;;;;;;;15.23;13.63;;;;;;;10.63;100.00;100344.13;6064122;23;20291;-86
2022/10/18 02:44:07;;;;;;;16.00;14.10;;;;;;;10.52;100.00;100330.28;6039346;23;20276;-86
2022/10/18 02:46:33;;;;;;;15.00;13.40;;;;;;;10.57;100.00;100337.72;6016651;23;20204;-86
2022/10/18 02:49:00;;;;;;;15.87;14.27;;;;;;;10.49;100.00;100341.41;6065576;23;20205;-86
2022/10/18 02:51:26;;;;;;;16.07;14.50;;;;;;;10.41;100.00;100344.25;6065743;23;20527;-86
2022/10/18 02:53:53;;;;;;;17.33;15.73;;;;;;;10.37;100.00;100342.19;6065838;23;20223;-86
2022/10/18 02:56:20;;;;;;;16.70;15.00;;;;;;;10.33;100.00;100349.78;6016088;23;20282;-87
2022/10/18 02:58:46;;;;;;;18.27;16.10;;;;;;;10.22;100.00;100341.53;6040429;23;20216;-87
2022/10/18 03:01:13;;;;;;;18.27;16.47;;;;;;;10.19;100.00;100350.78;6065438;23;20211;-88
2022/10/18 03:03:40;;;;;;;18.37;16.50;;;;;;;10.20;100.00;100351.59;6066418;23;20213;-87
2022/10/18 03:06:06;;;;;;;19.50;17.53;;;;;;;10.13;100.00;100344.31;6040065;23;20208;-82
2022/10/18 03:08:33;;;;;;;19.10;17.10;;;;;;;10.06;100.00;100353.34;6065603;23;20209;-82
2022/10/18 03:10:59;;;;;;;18.47;16.67;;;;;;;10.00;100.00;100356.81;6040735;23;20650;-81
2022/10/18 03:13:26;;;;;;;19.30;17.20;;;;;;;9.97;100.00;100360.72;6065536;23;20670;-83
2022/10/18 03:15:52;;;;;;;18.93;16.70;;;;;;;9.87;100.00;100362.94;6068910;23;20213;-87
2022/10/18 03:18:19;;;;;;;18.77;16.87;;;;;;;9.84;100.00;100363.34;6041062;23;20212;-86
2022/10/18 03:20:46;;;;;;;19.80;17.70;;;;;;;9.83;100.00;100361.69;6066019;23;20212;-85
2022/10/18 03:23:12;;;;;;;18.63;16.73;;;;;;;9.78;100.00;100360.63;6040945;23;20208;-85
2022/10/18 03:25:39;;;;;;;19.90;17.90;;;;;;;9.71;100.00;100366.75;6066319;23;21484;-86
2022/10/18 03:28:11;;;;;;;18.60;16.80;;;;;;;9.69;100.00;100366.13;6040684;23;20205;-85
2022/10/18 03:30:37;;;;;;;19.47;17.50;;;;;;;9.69;100.00;100368.81;6064852;23;20209;-86
2022/10/18 03:33:05;;;;;;;19.80;17.43;;;;;;;9.69;100.00;100371.47;6041049;23;20310;-85
2022/10/18 03:35:31;;;;;;;19.77;17.70;;;;;;;9.68;100.00;100366.31;6043853;23;20689;-86
2022/10/18 03:37:58;;;;;;;20.47;18.13;;;;;;;9.63;100.00;100361.56;6020439;23;20208;-85
2022/10/18 03:40:25;;;;;;;20.40;18.30;;;;;;;9.69;100.00;100362.63;6044732;23;20200;-85
2022/10/18 03:42:51;;;;;;;19.73;17.83;;;;;;;9.69;100.00;100360.78;6074472;23;20209;-85
2022/10/18 03:45:18;;;;;;;19.30;17.37;;;;;;;9.61;100.00;100355.56;6048700;23;20217;-85
2022/10/18 03:47:45;;;;;;;20.50;18.10;;;;;;;9.60;100.00;100366.47;6046365;23;20211;-85
2022/10/18 03:50:11;;;;;;;21.07;18.90;;;;;;;9.53;100.00;100370.94;6071543;23;20212;-85
2022/10/18 03:52:38;;;;;;;20.53;18.43;;;;;;;9.53;100.00;100376.28;6072744;23;20209;-85
2022/10/18 03:55:07;;;;;;;20.93;18.80;;;;;;;9.49;100.00;100375.03;6074483;23;20199;-84
2022/10/18 03:57:34;;;;;;;21.20;18.67;;;;;;;9.46;100.00;100378.94;6051400;23;20208;-84
2022/10/18 04:00:00;;;;;;;20.53;18.40;;;;;;;9.36;100.00;100377.59;6071764;23;20708;-83
2022/10/18 04:02:37;;;;;;;20.50;18.40;;;;;;;9.37;100.00;100381.94;6070184;23;20603;-83
2022/10/18 04:05:04;;;;;;;20.47;18.33;;;;;;;9.36;100.00;100378.44;6071612;23;20208;-84
2022/10/18 04:07:31;;;;;;;19.50;17.60;;;;;;;9.31;100.00;100372.84;6048332;23;20279;-84
2022/10/18 04:09:57;;;;;;;20.67;18.47;;;;;;;9.19;100.00;100377.84;6072480;23;20278;-84
2022/10/18 04:12:24;;;;;;;20.93;18.83;;;;;;;9.15;100.00;100381.94;6049962;23;20205;-84
2022/10/18 04:14:51;;;;;;;21.60;19.40;;;;;;;9.17;100.00;100374.56;6076238;23;20283;-84
2022/10/18 04:17:17;;;;;;;20.77;17.70;;;;;;;9.21;100.00;100381.19;6062353;23;20249;-84
2022/10/18 04:20:02;;;;;;;20.97;18.90;;;;;;;9.33;100.00;100375.31;6068377;23;20243;-85
2022/10/18 04:38:20;;;;;;;20.73;18.53;;;;;;;8.84;100.00;100360.06;6092870;23;20228;-84
2022/10/18 06:43:08;;;;;;;22.33;19.93;;;;;;;10.95;100.00;100413.06;6087171;23;20223;-88
2022/10/18 06:45:47;;;;;;;20.60;18.60;;;;;;;11.10;100.00;100410.22;6048689;23;20275;-88
2022/10/18 06:48:14;;;;;;;24.73;22.20;;;;;;;11.21;100.00;100425.69;6045386;23;20211;-88
2022/10/18 06:50:41;;;;;;;25.33;22.53;;;;;;;11.30;100.00;100422.59;6022355;23;20203;-89
2022/10/18 06:53:08;;;;;;;19.73;17.63;;;;;;;11.46;100.00;100421.38;6046716;23;20216;-89
2022/10/18 06:55:35;;;;;;;19.70;17.70;;;;;;;11.51;100.00;100418.06;6046143;23;20212;-88
2022/10/18 06:58:01;;;;;;;21.77;18.30;;;;;;;11.63;100.00;100425.28;6044856;23;20215;-86
2022/10/18 07:00:28;;;;;;;22.40;17.60;;;;;;;11.70;100.00;100426.13;6069445;23;20263;-90
2022/10/18 07:02:56;;;;;;;18.90;17.00;;;;;;;11.79;100.00;100426.78;6044845;23;20212;-90
2022/10/18 07:05:23;;;;;;;19.67;17.67;;;;;;;11.82;100.00;100423.66;6094423;23;20318;-90
2022/10/18 07:07:49;;;;;;;19.13;17.17;;;;;;;11.97;100.00;100429.63;6021455;23;20215;-91
2022/10/18 07:10:22;;;;;;;20.67;18.27;;;;;;;12.11;100.00;100435.81;6045972;23;20208;-89
2022/10/18 07:12:49;;;;;;;18.63;16.83;;;;;;;12.22;100.00;100430.63;6044928;23;20209;-89
2022/10/18 07:15:22;;;;;;;18.87;16.97;;;;;;;12.22;100.00;100430.63;6047834;23;20208;-89
2022/10/18 07:17:49;;;;;;;19.13;17.10;;;;;;;12.30;100.00;100433.06;6021532;23;20224;-91
2022/10/18 07:20:16;;;;;;;19.40;17.40;;;;;;;12.32;100.00;100431.00;6044328;23;20231;-92
2022/10/18 07:22:42;;;;;;;21.63;17.43;;;;;;;12.44;100.00;100431.16;6045188;23;20208;-91
2022/10/18 07:25:09;;;;;;;20.10;17.63;;;;;;;12.53;100.00;100429.06;6044995;23;20227;-91
2022/10/18 07:27:38;;;;;;;19.80;17.57;;;;;;;12.58;100.00;100429.25;6021816;23;20271;-90
2022/10/18 07:30:06;;;;;;;19.30;17.43;;;;;;;12.65;100.00;100428.19;6044359;23;20212;-90
2022/10/18 07:32:33;;;;;;;19.07;17.07;;;;;;;12.73;100.00;100424.44;6021563;23;20216;-90
2022/10/18 07:35:01;;;;;;;18.23;16.50;;;;;;;12.83;100.00;100422.09;6045323;23;20216;-91
2022/10/18 07:37:28;;;;;;;18.97;16.97;;;;;;;12.91;100.00;100421.84;6045725;23;20212;-90
2022/10/18 07:39:55;;;;;;;17.23;15.60;;;;;;;12.96;100.00;100419.34;6022154;23;20264;-90
2022/10/18 07:42:22;;;;;;;18.27;16.43;;;;;;;13.06;100.00;100421.56;6039740;23;20228;-92
2022/10/18 07:44:49;;;;;;;18.60;16.80;;;;;;;13.09;100.00;100426.50;6040682;23;20602;-91
2022/10/18 07:47:16;;;;;;;17.57;15.53;;;;;;;13.17;100.00;100429.78;6042067;23;20536;-92
2022/10/18 07:49:42;;;;;;;17.87;15.93;;;;;;;13.19;100.00;100421.50;6067660;23;20677;-91
2022/10/18 07:52:10;;;;;;;18.80;16.87;;;;;;;13.33;100.00;100419.53;6043413;23;20724;-91
2022/10/18 07:54:36;;;;;;;18.47;16.60;;;;;;;13.32;100.00;100417.88;6067813;23;20218;-90
2022/10/18 07:57:04;;;;;;;18.87;16.60;;;;;;;13.28;100.00;100420.19;6043913;23;20221;-90
2022/10/18 07:59:30;;;;;;;18.53;16.80;;;;;;;13.38;100.00;100423.25;6043756;23;20215;-91
2022/10/18 08:01:57;;;;;;;18.03;16.27;;;;;;;13.40;100.00;100413.06;6020544;23;20220;-89
2022/10/18 08:04:24;;;;;;;17.57;15.87;;;;;;;13.50;100.00;100410.72;6042732;23;20204;-91
2022/10/18 08:06:50;;;;;;;17.47;15.77;;;;;;;13.64;100.00;100417.63;6042638;23;20233;-91
2022/10/18 08:09:17;;;;;;;17.47;15.73;;;;;;;13.73;100.00;100412.78;6041553;23;20210;-91
2022/10/18 08:11:44;;;;;;;16.50;14.93;;;;;;;13.85;100.00;100411.03;6066192;23;20214;-91
2022/10/18 08:14:10;;;;;;;16.47;14.87;;;;;;;13.91;100.00;100409.28;6042226;23;20222;-91
2022/10/18 08:16:37;;;;;;;17.60;15.90;;;;;;;14.00;100.00;100411.47;6043574;23;20203;-90
2022/10/18 08:19:03;;;;;;;17.70;15.80;;;;;;;14.13;100.00;100404.31;6069151;23;20242;-90
2022/10/18 08:21:30;;;;;;;19.77;15.53;;;;;;;14.25;100.00;100410.59;6067465;23;20215;-91
2022/10/18 08:23:57;;;;;;;16.43;14.03;;;;;;;14.34;100.00;100415.47;6044294;23;20213;-90
2022/10/18 08:26:23;;;;;;;15.67;14.27;;;;;;;14.45;100.00;100403.16;6043683;23;20208;-90
2022/10/18 08:28:50;;;;;;;17.23;15.17;;;;;;;14.50;100.00;100408.69;6044444;23;20229;-91
2022/10/18 08:31:37;;;;;;;15.67;14.00;;;;;;;14.62;100.00;100401.47;6047785;23;20207;-90
2022/10/18 08:34:04;;;;;;;16.23;14.53;;;;;;;14.66;100.00;100408.06;6043609;23;20906;-90
2022/10/18 08:36:30;;;;;;;16.90;14.33;;;;;;;14.73;100.00;100414.19;6044296;23;20435;-91
2022/10/18 08:38:57;;;;;;;16.33;14.63;;;;;;;14.77;100.00;100410.00;6044570;23;20212;-90
2022/10/18 08:41:36;;;;;;;15.67;14.03;;;;;;;14.86;100.00;100403.22;6044119;23;20211;-91
2022/10/18 08:44:22;;;;;;;16.57;13.93;;;;;;;14.94;100.00;100408.28;6067413;23;20209;-90
2022/10/18 08:46:55;;;;;;;15.83;14.07;;;;;;;15.02;100.00;100406.34;6020408;23;20215;-90
2022/10/18 08:49:40;;;;;;;15.13;13.53;;;;;;;15.05;100.00;100400.47;6044343;23;20271;-90
2022/10/18 08:52:24;;;;;;;16.70;14.43;;;;;;;14.84;100.00;100394.53;6066242;23;20285;-89
2022/10/18 08:55:00;;;;;;;16.40;14.80;;;;;;;15.02;100.00;100399.06;6066691;23;20243;-89
2022/10/18 08:57:27;;;;;;;16.67;15.17;;;;;;;15.05;100.00;100387.81;6066315;23;20218;-89
2022/10/18 08:59:54;;;;;;;16.97;15.27;;;;;;;14.98;100.00;100390.59;6066671;23;20749;-87
2022/10/18 09:02:49;;;;;;;15.43;13.90;;;;;;;15.07;100.00;100392.97;6066239;23;20222;-89
2022/10/18 09:05:28;;;;;;;17.03;15.40;;;;;;;15.29;100.00;100394.91;6043290;23;20212;-88
2022/10/18 09:08:29;;;;;;;16.23;14.57;;;;;;;15.40;100.00;100390.56;6066895;23;20239;-89
2022/10/18 09:11:33;;;;;;;15.47;13.93;;;;;;;15.46;100.00;100389.66;6066312;23;20283;-89
2022/10/18 09:14:21;;;;;;;15.93;14.33;;;;;;;15.57;100.00;100393.44;6065238;23;20224;-89
2022/10/18 09:17:20;;;;;;;15.87;14.43;;;;;;;15.45;100.00;100388.00;6065090;23;20673;-89
2022/10/18 09:19:54;;;;;;;16.00;14.30;;;;;;;15.60;100.00;100385.69;6065656;23;20216;-90
2022/10/18 09:22:38;;;;;;;15.67;14.03;;;;;;;15.65;100.00;100379.59;6064938;23;20216;-89
2022/10/18 09:25:43;;;;;;;14.63;13.27;;;;;;;15.75;100.00;100377.13;6065191;23;20212;-88
2022/10/18 09:28:29;;;;;;;14.33;13.03;;;;;;;15.94;100.00;100372.44;6059815;23;20239;-88
2022/10/18 09:31:18;;;;;;;14.43;13.03;;;;;;;16.05;100.00;100369.69;6067279;23;20612;-89
2022/10/18 09:34:06;;;;;;;15.50;12.80;;;;;;;16.18;100.00;100366.75;6042019;23;20217;-90
2022/10/18 09:36:36;;;;;;;14.03;12.63;;;;;;;16.26;100.00;100366.38;6065494;23;20221;-90
2022/10/18 09:39:08;;;;;;;14.77;13.27;;;;;;;16.35;99.20;100361.41;6043122;23;20217;-89
2022/10/18 09:42:19;;;;;;;15.67;14.07;;;;;;;16.48;96.33;100363.00;6042792;23;20680;-89
2022/10/18 09:44:48;;;;;;;14.27;12.77;;;;;;;16.48;94.36;100366.53;5999769;23;20202;-90
2022/10/18 09:47:24;;;;;;;13.67;12.47;;;;;;;16.49;94.02;100370.91;5990115;23;20216;-90
2022/10/18 09:49:55;;;;;;;14.33;12.93;;;;;;;16.61;93.93;100360.88;5988891;23;20344;-90
2022/10/18 09:52:47;;;;;;;14.03;12.43;;;;;;;16.72;92.78;100364.59;5989679;23;20201;-89
2022/10/18 09:55:18;;;;;;;14.63;12.77;;;;;;;16.85;90.83;100355.34;5961725;23;20213;-89
2022/10/18 09:58:05;;;;;;;14.03;12.60;;;;;;;16.93;90.72;100353.09;5989824;23;20535;-89
2022/10/18 10:00:47;;;;;;;14.60;13.10;;;;;;;16.98;89.79;100350.47;6013131;23;20205;-88
2022/10/18 10:03:14;;;;;;;13.87;12.47;;;;;;;17.07;89.04;100345.50;6037083;23;20221;-88
2022/10/18 10:05:42;;;;;;;13.87;12.53;;;;;;;17.13;88.19;100350.72;6013785;23;20218;-88
2022/10/18 10:08:09;;;;;;;14.37;12.67;;;;;;;17.27;88.57;100351.22;6036321;23;20217;-87
2022/10/18 10:10:38;;;;;;;14.30;12.97;;;;;;;17.40;87.37;100342.81;6036012;23;20217;-89
2022/10/18 10:13:21;;;;;;;15.00;13.57;;;;;;;17.39;87.54;100335.72;6012015;23;20216;-89
2022/10/18 10:15:54;;;;;;;13.53;12.27;;;;;;;17.60;86.86;100334.16;6037259;23;20212;-88
2022/10/18 10:18:33;;;;;;;14.73;13.20;;;;;;;17.78;84.77;100333.88;6035189;23;20218;-88
2022/10/18 10:21:06;;;;;;;14.20;12.80;;;;;;;17.89;83.87;100326.72;5988862;23;20240;-88
2022/10/18 10:23:36;;;;;;;14.00;12.60;;;;;;;17.98;82.93;100319.81;6037561;23;20216;-88
2022/10/18 10:26:06;;;;;;;13.77;12.47;;;;;;;18.11;82.86;100324.03;5988095;23;20216;-88
2022/10/18 10:28:45;;;;;;;14.10;12.63;;;;;;;18.29;81.28;100324.53;6035515;23;20208;-88
2022/10/18 10:31:23;;;;;;;14.63;13.23;;;;;;;18.46;80.65;100324.47;6012813;23;20265;-88
2022/10/18 10:34:02;;;;;;;14.77;13.30;;;;;;;18.45;80.34;100314.69;6037071;23;20217;-87
2022/10/18 10:36:30;;;;;;;15.43;13.30;;;;;;;18.58;80.23;100317.00;6036890;23;20209;-86
2022/10/18 10:39:06;;;;;;;14.93;13.50;;;;;;;18.62;78.30;100323.56;6035549;23;20214;-87
2022/10/18 10:41:33;;;;;;;14.33;13.00;;;;;;;18.64;77.73;100313.28;6037409;23;20209;-86
2022/10/18 10:44:01;;;;;;;13.80;12.50;;;;;;;18.78;77.57;100305.56;6060501;23;20231;-86
2022/10/18 10:46:35;;;;;;;14.60;13.20;;;;;;;18.92;76.96;100314.91;6039642;23;20206;-86
2022/10/18 10:49:02;;;;;;;14.03;12.63;;;;;;;19.00;76.60;100306.28;6063929;23;20281;-87
2022/10/18 10:51:55;;;;;;;13.77;12.40;;;;;;;19.07;75.35;100304.19;6043647;23;20217;-86
2022/10/18 10:54:43;;;;;;;13.90;12.60;;;;;;;19.18;75.02;100300.47;6065203;23;20210;-86
2022/10/18 10:57:22;;;;;;;14.40;13.00;;;;;;;19.22;75.46;100298.88;6063645;23;20729;-86
2022/10/18 10:59:51;;;;;;;14.43;13.03;;;;;;;19.47;73.91;100298.28;6063859;23;20215;-87
2022/10/18 11:02:31;;;;;;;13.30;11.93;;;;;;;19.62;73.76;100295.66;6063229;23;20280;-87
2022/10/18 11:05:41;;;;;;;14.50;13.13;;;;;;;19.74;71.92;100285.38;6063501;23;20218;-87
2022/10/18 11:08:09;;;;;;;14.40;12.87;;;;;;;19.77;71.61;100289.50;5976303;24;20216;-87
2022/10/18 11:10:54;;;;;;;14.37;12.97;;;;;;;19.81;71.10;100285.16;6023239;23;20228;-87
2022/10/18 11:13:38;;;;;;;14.17;12.73;;;;;;;19.89;70.85;100279.22;6063530;23;20210;-86
2022/10/18 11:16:12;;;;;;;14.50;13.00;;;;;;;19.95;70.44;100275.44;6039690;23;20218;-87
2022/10/18 11:18:39;;;;;;;14.93;13.47;;;;;;;19.79;70.39;100271.00;6063589;23;20208;-85
2022/10/18 11:21:10;;;;;;;14.53;13.00;;;;;;;19.62;70.51;100270.38;6063117;23;20220;-86
2022/10/18 11:23:38;;;;;;;14.17;12.70;;;;;;;19.79;71.17;100268.28;6065330;23;20225;-86
2022/10/18 11:26:11;;;;;;;14.07;12.67;;;;;;;19.77;70.45;100263.13;6062918;23;20422;-88
2022/10/18 11:29:02;;;;;;;15.33;13.70;;;;;;;19.65;70.71;100262.50;6065060;23;20238;-86
2022/10/18 11:31:57;;;;;;;12.73;11.57;;;;;;;19.69;70.46;100257.38;6064767;23;20334;-86
2022/10/18 11:34:59;;;;;;;13.20;11.80;;;;;;;19.67;69.98;100260.34;6060821;23;20210;-88
2022/10/18 11:37:41;;;;;;;11.87;10.80;;;;;;;19.91;69.40;100258.03;6024606;23;20317;-86
2022/10/18 11:40:39;;;;;;;12.50;11.20;;;;;;;20.02;68.97;100253.41;6064806;23;20734;-87
2022/10/18 11:43:22;;;;;;;12.57;11.37;;;;;;;19.99;70.21;100246.63;6058269;23;20298;-86
2022/10/18 11:46:02;;;;;;;12.77;11.37;;;;;;;19.99;69.38;100245.81;6034996;23;20269;-87
2022/10/18 11:49:00;;;;;;;12.63;11.37;;;;;;;20.21;68.92;100251.84;6035790;23;20229;-86
2022/10/18 11:51:49;;;;;;;13.20;11.17;;;;;;;20.24;69.11;100254.06;6034534;23;20223;-87
2022/10/18 11:54:42;;;;;;;11.73;10.53;;;;;;;20.29;68.23;100240.47;6005802;23;20206;-85
2022/10/18 11:57:18;;;;;;;12.00;10.93;;;;;;;20.38;67.95;100238.06;6034346;23;20286;-86
2022/10/18 11:59:53;;;;;;;12.37;11.07;;;;;;;20.52;67.59;100239.19;6036370;23;20224;-85
2022/10/18 12:02:48;;;;;;;11.87;10.83;;;;;;;20.71;65.97;100234.84;6035300;23;20219;-86
2022/10/18 12:05:15;;;;;;;11.87;10.77;;;;;;;20.76;65.09;100220.41;6036181;23;20216;-86
2022/10/18 12:07:54;;;;;;;13.93;11.03;;;;;;;20.75;65.21;100237.84;6036014;23;20229;-85
2022/10/18 12:10:21;;;;;;;13.43;10.93;;;;;;;20.90;64.90;100233.19;6010448;23;20230;-84
2022/10/18 12:13:13;;;;;;;11.87;10.43;;;;;;;21.02;65.02;100230.19;6036143;23;20212;-86
2022/10/18 12:15:40;;;;;;;12.17;10.97;;;;;;;21.15;64.05;100218.78;6010925;23;20567;-86
2022/10/18 12:18:15;;;;;;;15.57;10.90;;;;;;;21.17;63.95;100222.06;6035458;23;20210;-86
2022/10/18 12:20:45;;;;;;;11.80;10.50;;;;;;;21.19;63.97;100222.56;6032868;23;20205;-84
2022/10/18 12:23:15;;;;;;;11.17;10.00;;;;;;;21.28;64.02;100225.56;6034465;23;20272;-85
2022/10/18 12:25:46;;;;;;;12.50;10.37;;;;;;;21.29;63.46;100221.75;6034285;23;20216;-85
2022/10/18 12:28:23;;;;;;;11.57;9.90;;;;;;;21.40;63.32;100209.75;6035329;23;20219;-85
2022/10/18 12:31:13;;;;;;;12.47;10.60;;;;;;;21.55;62.66;100209.69;6035704;23;20275;-85
2022/10/18 12:33:43;;;;;;;11.93;10.83;;;;;;;21.63;62.85;100208.31;6035829;23;20222;-85
2022/10/18 12:36:38;;;;;;;13.50;10.97;;;;;;;21.52;62.33;100204.78;6036857;23;20666;-86
2022/10/18 12:39:09;;;;;;;11.60;10.43;;;;;;;21.48;62.97;100201.81;6012676;23;20244;-86
2022/10/18 12:41:36;;;;;;;11.80;10.63;;;;;;;21.51;63.55;100197.69;6037148;23;20226;-85
2022/10/18 12:44:18;;;;;;;11.70;10.50;;;;;;;21.59;63.59;100202.59;6061400;23;20216;-86
2022/10/18 12:46:47;;;;;;;12.40;10.97;;;;;;;21.60;62.33;100192.50;6066279;23;20212;-86
2022/10/18 12:49:35;;;;;;;13.37;11.13;;;;;;;21.51;62.74;100189.50;6064925;23;20325;-85
2022/10/18 12:52:20;;;;;;;12.27;11.10;;;;;;;21.22;63.42;100188.53;6064105;23;20217;-85
2022/10/18 12:55:17;;;;;;;11.53;10.37;;;;;;;21.02;64.15;100182.00;6065011;23;20216;-84
2022/10/18 12:57:52;;;;;;;12.73;11.23;;;;;;;20.86;65.14;100185.81;6066023;23;20723;-86
2022/10/18 13:00:28;;;;;;;12.00;10.83;;;;;;;20.96;65.61;100183.09;6065954;23;20440;-86
2022/10/18 13:03:15;;;;;;;11.63;10.40;;;;;;;20.85;65.63;100180.66;6065696;23;20219;-85
2022/10/18 13:05:50;;;;;;;12.17;10.93;;;;;;;20.96;65.10;100185.81;6066015;23;20294;-86
2022/10/18 13:08:26;;;;;;;12.30;11.10;;;;;;;21.27;64.07;100173.00;6065334;23;20214;-86
2022/10/18 13:11:11;;;;;;;13.17;10.70;;;;;;;21.39;64.00;100168.03;6065965;23;20211;-85
2022/10/18 13:14:02;;;;;;;12.60;11.40;;;;;;;21.58;62.85;100164.69;6066258;23;20205;-85
2022/10/18 13:16:57;;;;;;;14.47;10.37;;;;;;;21.64;63.37;100174.50;6059781;23;20280;-84
2022/10/18 13:19:34;;;;;;;12.90;11.33;;;;;;;21.72;63.26;100171.19;6037105;23;20213;-85
2022/10/18 13:22:26;;;;;;;12.30;9.93;;;;;;;21.78;63.11;100165.44;6035031;23;20216;-85
2022/10/18 13:24:53;;;;;;;12.23;10.30;;;;;;;21.85;61.90;100155.00;6059404;23;20314;-85
2022/10/18 13:27:38;;;;;;;12.40;11.20;;;;;;;21.71;61.85;100156.72;6036834;23;20209;-85
2022/10/18 13:30:29;;;;;;;12.03;10.93;;;;;;;21.44;62.37;100151.66;6035056;23;20222;-85
2022/10/18 13:33:01;;;;;;;11.00;9.60;;;;;;;21.51;63.46;100140.44;6035637;23;20213;-85
2022/10/18 13:35:37;;;;;;;11.50;10.30;;;;;;;21.65;62.54;100138.75;6012024;23;20246;-85
2022/10/18 13:38:04;;;;;;;11.70;10.60;;;;;;;21.79;62.15;100141.69;6036451;23;20206;-84
2022/10/18 13:40:31;;;;;;;12.13;10.63;;;;;;;21.84;61.87;100137.00;6035532;23;20208;-85
2022/10/18 13:43:36;;;;;;;12.27;11.07;;;;;;;21.93;60.90;100129.91;6049787;23;20215;-83
2022/10/18 13:46:03;;;;;;;11.43;10.33;;;;;;;21.97;61.35;100126.63;6065221;23;20215;-85
2022/10/18 13:48:29;;;;;;;11.47;10.13;;;;;;;21.99;61.20;100138.06;6016329;23;20212;-84
2022/10/18 13:51:01;;;;;;;11.50;10.23;;;;;;;21.97;61.53;100129.34;6065432;23;20218;-84
2022/10/18 13:53:36;;;;;;;11.32;9.85;;;;;;;22.00;60.73;100121.41;6039725;23;20603;-85
2022/10/18 13:56:29;;;;;;;12.02;10.82;;;;;;;22.01;61.83;100128.50;6039670;23;20213;-85
2022/10/18 13:59:24;;;;;;;13.23;9.90;;;;;;;22.01;61.50;100117.59;6040405;23;20249;-84